Time;durP1;ratioP1;P1;durP2;ratioP2;P2;SDS_P1;SDS_P2;PMS_P1;PMS_P2;Temp;Humidity;BMP_temperature;BMP_pressure;BME280_temperature;BME280_humidity;BME280_pressure;Samples;Min_cycle;Max_cycle;Signal;HPM_P1;HPM_P2
2022/04/25 00:06:16;;;;;;;23.13;13.20;;;;;;;9.34;100.00;99492.38;21064581;28;20393;-71
2022/04/25 00:16:18;;;;;;;21.15;13.45;;;;;;;9.33;100.00;99492.41;21065280;28;20051;-72
2022/04/25 00:26:20;;;;;;;21.73;13.77;;;;;;;9.23;100.00;99486.56;21060240;28;20056;-73
2022/04/25 00:36:21;;;;;;;22.58;13.57;;;;;;;9.16;100.00;99492.84;21056388;28;20047;-70
2022/04/25 00:46:24;;;;;;;20.88;12.20;;;;;;;9.10;100.00;99512.13;21062553;28;20044;-70
2022/04/25 00:56:26;;;;;;;25.10;14.15;;;;;;;9.04;100.00;99516.63;21065732;28;20074;-71
2022/04/25 01:06:28;;;;;;;25.15;14.93;;;;;;;8.67;100.00;99512.22;21050104;28;20053;-71
2022/04/25 01:16:29;;;;;;;72.20;15.40;;;;;;;8.52;100.00;99502.13;21058538;28;20074;-71
2022/04/25 01:36:51;;;;;;;30.27;15.77;;;;;;;8.70;100.00;99512.16;21055107;28;20046;-71
2022/04/25 01:46:52;;;;;;;26.85;16.98;;;;;;;8.64;100.00;99509.72;21051467;28;20411;-72
2022/04/25 01:56:55;;;;;;;31.83;18.85;;;;;;;8.62;100.00;99503.66;21053975;28;20310;-71
2022/04/25 02:06:57;;;;;;;28.38;17.45;;;;;;;8.43;100.00;99514.50;21067278;28;20055;-71
2022/04/25 02:16:59;;;;;;;26.98;17.15;;;;;;;8.32;100.00;99518.19;21046524;28;20054;-70
2022/04/25 02:27:03;;;;;;;31.50;17.85;;;;;;;8.32;100.00;99521.66;21058271;28;20045;-70
2022/04/25 02:37:05;;;;;;;31.60;14.53;;;;;;;8.11;100.00;99529.91;21070398;28;20622;-70
2022/04/25 02:47:06;;;;;;;28.55;14.35;;;;;;;7.99;100.00;99528.38;21071674;28;20048;-71
2022/04/25 02:57:08;;;;;;;30.85;16.10;;;;;;;8.10;100.00;99531.66;21064684;28;20041;-71
2022/04/25 03:07:09;;;;;;;40.60;19.30;;;;;;;8.27;100.00;99536.53;21069670;28;20048;-71
2022/04/25 03:17:12;;;;;;;47.17;22.23;;;;;;;8.31;100.00;99532.13;21073517;28;20458;-70
2022/04/25 03:27:13;;;;;;;40.78;22.38;;;;;;;8.27;100.00;99543.50;21057257;28;20047;-71
2022/04/25 03:37:15;;;;;;;34.20;21.42;;;;;;;8.40;100.00;99545.00;21064641;28;20488;-70
2022/04/25 03:47:16;;;;;;;43.72;23.27;;;;;;;8.36;100.00;99562.47;21074082;28;20063;-70
2022/04/25 03:57:18;;;;;;;38.70;20.38;;;;;;;8.17;100.00;99574.97;21061724;28;20054;-70
2022/04/25 04:07:19;;;;;;;33.47;19.40;;;;;;;8.07;100.00;99580.41;21056997;28;20100;-72
2022/04/25 04:17:21;;;;;;;34.58;17.17;;;;;;;7.93;100.00;99560.66;21062924;28;20112;-70
2022/04/25 04:27:22;;;;;;;24.30;15.57;;;;;;;7.85;100.00;99583.38;21072181;28;20505;-71
2022/04/25 04:37:25;;;;;;;25.10;15.65;;;;;;;7.84;100.00;99592.09;21053032;28;20108;-71
2022/04/25 04:47:31;;;;;;;24.33;15.32;;;;;;;7.90;100.00;99599.78;21058521;28;20050;-71
2022/04/25 04:57:32;;;;;;;28.40;16.92;;;;;;;8.09;100.00;99607.28;21060569;28;20041;-71
2022/04/25 05:07:35;;;;;;;44.38;22.50;;;;;;;8.16;100.00;99614.97;21059865;28;20052;-71
2022/04/25 05:17:36;;;;;;;70.97;22.00;;;;;;;8.31;100.00;99618.19;21056869;28;20059;-71
2022/04/25 05:27:38;;;;;;;48.53;18.98;;;;;;;8.19;100.00;99632.28;21063022;28;20049;-71
2022/04/25 05:37:39;;;;;;;49.30;16.70;;;;;;;8.32;100.00;99656.41;21063385;28;20042;-71
2022/04/25 05:47:42;;;;;;;23.25;15.50;;;;;;;8.44;100.00;99646.66;21047676;28;20439;-70
2022/04/25 05:57:44;;;;;;;22.60;15.25;;;;;;;8.67;100.00;99658.38;21056302;28;20041;-70
2022/04/25 06:07:48;;;;;;;24.58;16.83;;;;;;;8.92;100.00;99659.59;21079533;28;20496;-69
2022/04/25 06:17:55;;;;;;;23.33;15.80;;;;;;;9.09;100.00;99674.06;21068337;28;20109;-73
2022/04/25 06:27:57;;;;;;;23.80;16.23;;;;;;;9.30;100.00;99676.22;21064000;28;20047;-72
2022/04/25 06:37:59;;;;;;;21.58;14.75;;;;;;;9.56;100.00;99687.81;21059009;28;20064;-72
2022/04/25 06:48:00;;;;;;;25.85;16.77;;;;;;;10.11;100.00;99689.09;21037364;28;20411;-72
2022/04/25 06:58:02;;;;;;;25.42;18.23;;;;;;;10.94;100.00;99674.69;21031841;28;20122;-72
2022/04/25 07:08:04;;;;;;;24.65;17.90;;;;;;;11.36;100.00;99666.47;21039865;28;20048;-67
2022/04/25 07:18:05;;;;;;;29.98;20.38;;;;;;;10.74;100.00;99664.78;21069039;28;20045;-66
2022/04/25 07:38:27;;;;;;;34.83;24.65;;;;;;;10.86;100.00;99703.69;21056945;28;20112;-66
2022/04/25 07:48:29;;;;;;;34.28;23.42;;;;;;;11.11;100.00;99703.00;21063534;28;20106;-67
2022/04/25 07:58:30;;;;;;;31.00;21.98;;;;;;;11.33;100.00;99703.22;21059184;28;20416;-68
2022/04/25 08:08:32;;;;;;;33.38;22.70;;;;;;;11.04;100.00;99713.66;21055431;28;20044;-67
2022/04/25 08:18:34;;;;;;;33.90;23.25;;;;;;;11.84;96.75;99713.06;21054458;28;20555;-67
2022/04/25 08:28:35;;;;;;;32.08;24.52;;;;;;;12.53;98.79;99714.25;21064237;28;20055;-67
2022/04/25 08:38:57;;;;;;;28.83;21.77;;;;;;;13.31;96.01;99717.53;21062243;28;20039;-67
2022/04/25 08:49:03;;;;;;;27.83;21.45;;;;;;;13.73;89.26;99723.84;21030579;28;20052;-66
2022/04/25 08:59:06;;;;;;;32.78;23.70;;;;;;;13.65;90.46;99723.28;21056466;28;20044;-67
2022/04/25 09:09:08;;;;;;;29.17;22.67;;;;;;;14.07;89.11;99723.34;21066085;28;20061;-67
2022/04/25 09:19:10;;;;;;;28.73;23.40;;;;;;;13.41;87.24;99728.56;21050450;28;20036;-66
2022/04/25 09:29:11;;;;;;;29.75;22.67;;;;;;;13.83;88.61;99727.81;21051324;28;20045;-68
2022/04/25 09:39:30;;;;;;;35.97;24.95;;;;;;;13.77;82.54;99749.97;21076560;28;20095;-67
2022/04/25 09:49:33;;;;;;;33.13;24.42;;;;;;;13.24;89.20;99758.13;21093575;28;20096;-66
2022/04/25 09:59:44;;;;;;;31.73;23.30;;;;;;;13.77;87.30;99757.00;21072717;28;20489;-67
2022/04/25 10:09:46;;;;;;;29.88;23.13;;;;;;;14.26;85.42;99760.31;21072742;28;20092;-66
2022/04/25 10:19:50;;;;;;;27.05;20.65;;;;;;;14.76;84.50;99771.41;21089579;28;20056;-67
2022/04/25 10:29:54;;;;;;;27.73;21.33;;;;;;;15.19;79.87;99768.63;21085401;28;20081;-67
2022/04/25 10:39:57;;;;;;;26.87;20.60;;;;;;;15.22;80.33;99771.16;21072599;28;20314;-67
2022/04/25 10:50:02;;;;;;;23.25;18.40;;;;;;;15.38;72.25;99753.72;21074403;28;20056;-68
2022/04/25 11:00:44;;;;;;;18.50;14.27;;;;;;;15.77;77.41;99744.91;21073482;28;20051;-67
2022/04/25 11:10:57;;;;;;;18.85;14.27;;;;;;;16.40;71.58;99745.31;21063961;28;20090;-68
2022/04/25 11:21:12;;;;;;;12.50;9.95;;;;;;;16.06;71.24;99754.06;21058170;28;20055;-67
2022/04/25 11:31:13;;;;;;;13.90;10.57;;;;;;;16.64;66.64;99746.72;21063265;28;20106;-68
2022/04/25 11:41:15;;;;;;;8.98;6.20;;;;;;;17.05;61.42;99767.53;21056945;28;20311;-67
2022/04/25 11:51:31;;;;;;;7.18;4.60;;;;;;;16.98;61.44;99765.31;21060343;28;20059;-67
2022/04/25 12:01:35;;;;;;;6.43;4.68;;;;;;;17.00;58.33;99758.16;21053905;28;20082;-67
2022/04/25 12:22:22;;;;;;;6.63;4.40;;;;;;;16.55;57.34;99762.19;20943323;28;20465;-68
2022/04/25 12:32:23;;;;;;;8.23;6.40;;;;;;;15.05;67.65;99791.22;21055053;28;20075;-67
2022/04/25 12:42:46;;;;;;;8.80;5.40;;;;;;;12.68;80.87;99799.53;21054457;28;20088;-68
2022/04/25 12:52:50;;;;;;;12.82;7.18;;;;;;;11.52;98.42;99820.59;21062344;28;20506;-67
2022/04/25 13:03:02;;;;;;;19.73;10.25;;;;;;;10.87;100.00;99861.69;21062556;28;20057;-68
2022/04/25 13:13:04;;;;;;;19.38;12.23;;;;;;;10.45;100.00;99885.44;21052471;28;20045;-67
2022/04/25 13:23:07;;;;;;;14.63;9.45;;;;;;;10.45;100.00;99903.75;21055005;28;20473;-68
2022/04/25 13:33:11;;;;;;;13.82;9.75;;;;;;;10.74;100.00;99869.03;21061589;28;20044;-68
2022/04/25 13:43:12;;;;;;;14.10;10.88;;;;;;;11.57;100.00;99839.69;21057686;28;20162;-68
2022/04/25 13:53:14;;;;;;;17.13;12.77;;;;;;;12.07;100.00;99777.00;21048057;28;20483;-69
2022/04/25 14:03:16;;;;;;;16.48;11.80;;;;;;;12.98;100.00;99771.31;21050188;28;20558;-68
2022/04/25 14:13:20;;;;;;;11.48;8.85;;;;;;;12.99;100.00;99763.41;21066433;28;20051;-68
2022/04/25 14:23:21;;;;;;;15.02;12.40;;;;;;;12.95;100.00;99803.81;21049814;28;20039;-66
2022/04/25 14:33:23;;;;;;;15.73;12.43;;;;;;;13.04;100.00;99800.03;21065494;28;20410;-65
2022/04/25 14:43:24;;;;;;;14.65;10.98;;;;;;;13.33;100.00;99783.22;21069508;28;20043;-64
2022/04/25 15:03:46;;;;;;;18.65;10.40;;;;;;;13.32;100.00;99813.06;21051920;28;20484;-65
2022/04/25 15:13:47;;;;;;;14.18;10.25;;;;;;;13.94;100.00;99811.59;21063430;28;20054;-70
2022/04/25 15:23:49;;;;;;;10.30;7.93;;;;;;;13.97;88.02;99804.44;21048047;28;20059;-70
2022/04/25 15:33:50;;;;;;;12.00;8.63;;;;;;;13.83;92.71;99817.28;21061234;28;20052;-67
2022/04/25 15:43:52;;;;;;;11.23;8.70;;;;;;;13.63;99.63;99833.84;21059155;28;20047;-67
2022/04/25 16:04:13;;;;;;;11.05;8.90;;;;;;;13.39;98.69;99827.69;21050318;28;20098;-65
2022/04/25 16:14:15;;;;;;;15.38;10.50;;;;;;;13.33;100.00;99831.41;21049212;28;20069;-65
2022/04/25 16:24:16;;;;;;;13.02;9.20;;;;;;;13.31;100.00;99853.41;21053058;28;20040;-67
2022/04/25 16:34:25;;;;;;;12.05;9.55;;;;;;;12.99;100.00;99863.25;21062840;28;20096;-69
2022/04/25 16:44:27;;;;;;;18.02;13.65;;;;;;;12.60;100.00;99891.72;21116475;22;20399;-76
2022/04/25 16:54:28;;;;;;;17.98;12.18;;;;;;;12.48;100.00;99929.72;21076341;28;20047;-77
2022/04/25 17:04:30;;;;;;;17.63;9.98;;;;;;;11.00;100.00;99973.97;21057903;28;20044;-76
2022/04/25 17:14:32;;;;;;;15.32;10.35;;;;;;;10.36;100.00;99983.31;21076813;28;20050;-75
2022/04/25 17:24:35;;;;;;;15.90;11.57;;;;;;;10.20;100.00;100005.41;21107306;28;20044;-74
